Time;durP1;ratioP1;P1;durP2;ratioP2;P2;SDS_P1;SDS_P2;PMS_P1;PMS_P2;Temp;Humidity;BMP_temperature;BMP_pressure;BME280_temperature;BME280_humidity;BME280_pressure;Samples;Min_cycle;Max_cycle;Signal;HPM_P1;HPM_P2
2023/10/06 00:01:43;;;;;;;11.32;4.57;;;;;;;10.73;100.00;102297.19;4982629;28;20440;-66
2023/10/06 00:04:13;;;;;;;11.68;4.03;;;;;;;10.72;100.00;102298.16;4978340;28;20756;-66
2023/10/06 00:06:42;;;;;;;12.68;4.35;;;;;;;10.72;100.00;102298.16;4993833;28;20034;-66
2023/10/06 00:09:30;;;;;;;10.50;5.20;;;;;;;10.70;100.00;102297.47;5000660;28;20042;-66
2023/10/06 00:11:56;;;;;;;9.55;4.55;;;;;;;10.73;100.00;102304.97;5013757;28;20772;-67
2023/10/06 00:14:40;;;;;;;12.57;4.45;;;;;;;10.71;100.00;102302.50;4996177;28;20038;-66
2023/10/06 00:17:17;;;;;;;7.68;4.15;;;;;;;10.67;100.00;102305.47;4996620;28;20034;-66
2023/10/06 00:19:50;;;;;;;10.73;4.07;;;;;;;10.66;100.00;102303.81;4995246;28;20062;-66
2023/10/06 00:24:44;;;;;;;14.05;4.35;;;;;;;10.68;100.00;102294.13;4998714;28;20046;-66
2023/10/06 00:27:13;;;;;;;11.27;4.28;;;;;;;10.67;100.00;102292.50;5004280;28;20099;-66
2023/10/06 00:29:43;;;;;;;8.50;3.78;;;;;;;10.65;100.00;102290.03;4992047;28;20544;-66
2023/10/06 00:32:21;;;;;;;11.82;3.97;;;;;;;10.63;100.00;102304.06;4995589;28;20030;-66
2023/10/06 00:34:48;;;;;;;9.98;4.07;;;;;;;10.60;100.00;102305.13;4995492;28;20132;-66
2023/10/06 00:37:15;;;;;;;7.18;3.42;;;;;;;10.61;100.00;102304.19;4999151;28;20056;-66
2023/10/06 00:39:42;;;;;;;11.48;4.47;;;;;;;10.60;100.00;102307.69;4977658;28;20045;-66
2023/10/06 00:42:08;;;;;;;11.23;3.67;;;;;;;10.58;100.00;102303.59;4982532;28;20057;-66
2023/10/06 00:44:34;;;;;;;8.98;4.35;;;;;;;10.57;100.00;102304.53;4996508;28;20084;-66
2023/10/06 00:47:05;;;;;;;10.23;4.50;;;;;;;10.56;100.00;102295.09;5001264;28;20042;-66
2023/10/06 00:49:32;;;;;;;15.45;4.15;;;;;;;10.51;100.00;102290.28;4996222;28;20129;-66
2023/10/06 00:51:59;;;;;;;10.63;4.82;;;;;;;10.50;100.00;102289.44;5002986;28;20041;-66
2023/10/06 00:54:26;;;;;;;9.35;4.43;;;;;;;10.49;100.00;102279.19;5002067;28;20818;-66
2023/10/06 00:56:57;;;;;;;11.52;3.92;;;;;;;10.48;100.00;102293.13;5002925;28;20129;-66
2023/10/06 00:59:24;;;;;;;11.18;3.88;;;;;;;10.48;100.00;102285.34;4986823;28;20104;-66
2023/10/06 01:01:50;;;;;;;14.10;4.65;;;;;;;10.47;100.00;102287.09;5005358;28;20033;-66
2023/10/06 01:04:16;;;;;;;10.02;4.88;;;;;;;10.47;100.00;102288.84;4986411;28;20407;-66
2023/10/06 01:06:42;;;;;;;8.73;3.78;;;;;;;10.44;100.00;102281.34;5002723;28;20400;-66
2023/10/06 01:09:16;;;;;;;10.02;3.58;;;;;;;10.42;100.00;102272.84;5005094;28;20407;-66
2023/10/06 01:11:51;;;;;;;9.15;4.15;;;;;;;10.42;100.00;102280.63;5005092;28;20033;-66
2023/10/06 01:14:27;;;;;;;9.98;4.50;;;;;;;10.38;100.00;102272.25;4999205;28;20039;-67
2023/10/06 01:17:14;;;;;;;10.43;4.53;;;;;;;10.37;100.00;102259.41;5004433;28;20048;-66
2023/10/06 01:19:53;;;;;;;8.65;4.00;;;;;;;10.36;100.00;102268.97;5002814;28;20052;-66
2023/10/06 01:22:28;;;;;;;11.68;4.40;;;;;;;10.32;100.00;102259.75;4990281;28;20546;-66
2023/10/06 01:24:54;;;;;;;10.98;4.22;;;;;;;10.34;100.00;102257.88;4999972;28;20049;-66
2023/10/06 01:27:25;;;;;;;7.65;4.03;;;;;;;10.33;100.00;102261.41;5003330;28;20038;-66
2023/10/06 01:30:09;;;;;;;12.57;4.63;;;;;;;10.31;100.00;102256.34;5005421;28;20136;-66
2023/10/06 01:32:34;;;;;;;11.55;4.50;;;;;;;10.29;100.00;102255.59;4999782;28;20572;-66
2023/10/06 01:35:01;;;;;;;10.35;4.68;;;;;;;10.27;100.00;102247.13;5017664;28;20030;-66
2023/10/06 01:37:27;;;;;;;14.48;5.15;;;;;;;10.28;100.00;102256.56;5007648;28;20042;-66
2023/10/06 01:39:53;;;;;;;9.65;4.57;;;;;;;10.26;100.00;102255.81;5002911;28;20523;-66
2023/10/06 01:42:24;;;;;;;7.65;4.05;;;;;;;10.23;100.00;102248.31;5003765;28;20030;-66
2023/10/06 01:44:49;;;;;;;17.70;4.93;;;;;;;10.26;100.00;102249.81;5002502;28;20073;-66
2023/10/06 01:47:18;;;;;;;12.82;4.47;;;;;;;10.22;100.00;102238.88;5002518;28;20499;-66
2023/10/06 01:49:44;;;;;;;10.65;4.53;;;;;;;10.22;100.00;102244.06;5003475;28;20034;-66
2023/10/06 01:52:13;;;;;;;13.88;3.83;;;;;;;10.22;100.00;102244.06;4988491;28;20656;-66
2023/10/06 01:54:39;;;;;;;9.52;4.25;;;;;;;10.22;100.00;102248.41;5003335;28;20051;-66
2023/10/06 01:57:10;;;;;;;10.98;4.45;;;;;;;10.21;100.00;102245.00;4992757;28;20508;-66
2023/10/06 01:59:36;;;;;;;8.02;4.13;;;;;;;10.19;100.00;102243.47;5016684;28;20102;-66
2023/10/06 02:02:02;;;;;;;7.82;3.75;;;;;;;10.21;100.00;102255.38;5004418;28;20045;-66
2023/10/06 02:04:38;;;;;;;11.75;4.30;;;;;;;10.28;100.00;102241.00;4999853;28;20438;-66
2023/10/06 02:07:05;;;;;;;12.63;3.90;;;;;;;10.24;100.00;102238.75;5003151;28;20602;-66
2023/10/06 02:09:32;;;;;;;11.85;4.05;;;;;;;10.25;100.00;102236.03;4999090;28;20049;-66
2023/10/06 02:11:57;;;;;;;11.15;4.78;;;;;;;10.25;100.00;102241.22;5000716;28;20057;-66
2023/10/06 02:14:23;;;;;;;8.13;3.90;;;;;;;10.26;100.00;102248.06;5002868;28;20492;-66
2023/10/06 02:16:49;;;;;;;8.18;3.83;;;;;;;10.26;100.00;102237.69;5000598;28;20053;-66
2023/10/06 02:19:18;;;;;;;10.82;3.63;;;;;;;10.28;100.00;102242.75;5002095;28;20037;-66
2023/10/06 02:21:45;;;;;;;7.38;3.88;;;;;;;10.28;100.00;102246.19;5003156;28;20030;-66
2023/10/06 02:24:12;;;;;;;14.52;4.05;;;;;;;10.37;100.00;102241.25;5002098;28;20049;-66
2023/10/06 02:26:37;;;;;;;9.15;3.97;;;;;;;10.35;100.00;102233.59;4998353;28;20029;-66
2023/10/06 02:29:12;;;;;;;9.68;4.00;;;;;;;10.38;100.00;102232.50;5002226;28;20038;-66
2023/10/06 02:31:37;;;;;;;12.38;4.18;;;;;;;10.37;100.00;102233.47;5003549;28;20065;-66
2023/10/06 02:34:04;;;;;;;14.30;4.15;;;;;;;10.37;100.00;102231.69;5002904;28;20034;-66
2023/10/06 02:36:31;;;;;;;10.13;4.05;;;;;;;10.38;100.00;102227.34;5000684;28;20052;-66
2023/10/06 02:38:56;;;;;;;9.75;4.00;;;;;;;10.37;100.00;102230.88;5003583;28;20495;-66
2023/10/06 02:41:26;;;;;;;12.13;4.32;;;;;;;10.36;100.00;102229.22;5001887;28;20034;-66
2023/10/06 02:43:53;;;;;;;9.15;4.13;;;;;;;10.33;100.00;102233.72;5000299;28;20076;-66
2023/10/06 02:46:25;;;;;;;10.07;3.80;;;;;;;10.31;100.00;102237.38;5003515;28;20038;-66
2023/10/06 02:48:51;;;;;;;11.77;3.67;;;;;;;10.28;100.00;102230.63;4999594;28;20042;-66
2023/10/06 02:51:30;;;;;;;11.40;4.05;;;;;;;10.28;100.00;102230.63;4989449;28;20045;-66
2023/10/06 02:54:21;;;;;;;10.00;3.97;;;;;;;10.31;100.00;102227.81;5002799;28;20733;-66
2023/10/06 02:56:47;;;;;;;10.60;4.40;;;;;;;10.33;100.00;102225.09;4998070;28;20421;-66
2023/10/06 02:59:21;;;;;;;8.63;3.88;;;;;;;10.31;100.00;102222.63;5001268;28;20117;-66
2023/10/06 03:02:00;;;;;;;8.82;3.95;;;;;;;10.29;100.00;102228.84;5003300;28;20045;-66
2023/10/06 03:04:27;;;;;;;11.80;3.97;;;;;;;10.28;100.00;102230.63;5001510;28;20095;-66
2023/10/06 03:06:56;;;;;;;8.75;3.80;;;;;;;10.25;100.00;102241.22;4998704;28;20120;-66
2023/10/06 03:09:38;;;;;;;10.93;3.88;;;;;;;10.23;100.00;102235.34;4999145;28;20042;-66
2023/10/06 03:12:26;;;;;;;11.50;4.73;;;;;;;10.23;100.00;102232.75;5000707;28;20505;-66
2023/10/06 03:15:00;;;;;;;11.90;3.55;;;;;;;10.22;100.00;102228.50;4982509;28;20045;-66
2023/10/06 03:17:26;;;;;;;11.27;3.78;;;;;;;10.22;100.00;102225.09;4996957;28;20589;-66
2023/10/06 03:20:12;;;;;;;11.90;4.25;;;;;;;10.23;100.00;102217.19;4984673;28;20041;-66
2023/10/06 03:22:40;;;;;;;9.10;3.80;;;;;;;10.22;100.00;102219.91;5000110;28;20037;-67
2023/10/06 03:25:16;;;;;;;7.22;3.83;;;;;;;10.23;100.00;102229.34;5003112;28;20030;-66
2023/10/06 03:27:45;;;;;;;10.27;3.72;;;;;;;10.24;100.00;102230.97;4981927;28;20044;-66
2023/10/06 03:30:18;;;;;;;8.80;3.85;;;;;;;10.23;100.00;102229.34;5000719;28;20040;-66
2023/10/06 03:32:52;;;;;;;8.52;3.95;;;;;;;10.26;100.00;102234.28;4995939;28;20038;-66
2023/10/06 03:35:23;;;;;;;12.55;4.35;;;;;;;10.31;100.00;102242.56;5002029;28;20037;-66
2023/10/06 03:37:53;;;;;;;14.35;4.22;;;;;;;10.34;100.00;102242.34;5000526;28;20085;-67
2023/10/06 03:41:13;;;;;;;20.52;5.10;;;;;;;10.30;100.00;102249.53;5001250;28;20427;-66
2023/10/06 03:43:13;;;;;;;10.45;3.85;;;;;;;10.28;100.00;102241.00;4996684;28;20519;-66
2023/10/06 03:45:40;;;;;;;12.77;3.90;;;;;;;10.25;100.00;102238.63;4994651;28;20034;-66
2023/10/06 03:48:12;;;;;;;9.23;4.18;;;;;;;10.25;100.00;102237.81;4986067;28;20054;-66
2023/10/06 03:50:41;;;;;;;11.65;3.88;;;;;;;10.22;100.00;102240.66;4998439;28;20053;-66
2023/10/06 03:53:11;;;;;;;11.73;4.57;;;;;;;10.21;100.00;102245.00;5001828;28;20040;-66
2023/10/06 03:55:40;;;;;;;13.73;3.70;;;;;;;10.20;100.00;102248.53;5000496;28;20123;-66
2023/10/06 03:58:10;;;;;;;8.15;3.17;;;;;;;10.18;100.00;102241.81;4999810;28;20041;-66
2023/10/06 04:00:40;;;;;;;10.65;3.75;;;;;;;10.17;100.00;102234.97;5001891;28;20033;-66
2023/10/06 04:03:14;;;;;;;9.48;3.85;;;;;;;10.17;100.00;102229.78;5000046;28;20085;-66
2023/10/06 04:05:48;;;;;;;11.35;3.97;;;;;;;10.21;100.00;102229.47;4999164;28;20029;-66
2023/10/06 04:08:16;;;;;;;15.80;5.05;;;;;;;10.27;100.00;102228.16;5000737;28;20471;-66
2023/10/06 04:10:48;;;;;;;14.57;5.32;;;;;;;10.26;100.00;102218.72;5001244;28;20017;-66
2023/10/06 04:13:16;;;;;;;6.78;4.13;;;;;;;10.25;100.00;102217.09;5000867;28;20042;-66
2023/10/06 04:15:49;;;;;;;13.95;4.50;;;;;;;10.24;100.00;102216.25;5016640;28;20029;-66
2023/10/06 04:18:18;;;;;;;11.98;4.22;;;;;;;10.31;100.00;102214.03;5001337;28;20042;-66
2023/10/06 04:20:46;;;;;;;8.27;3.90;;;;;;;10.32;100.00;102211.34;5001061;28;20038;-66
2023/10/06 04:23:12;;;;;;;14.98;4.18;;;;;;;10.29;100.00;102205.53;5003566;28;20034;-66
2023/10/06 04:25:38;;;;;;;11.25;4.20;;;;;;;10.27;100.00;102210.00;5004872;28;20034;-66
2023/10/06 04:28:09;;;;;;;11.18;4.03;;;;;;;10.30;100.00;102201.97;5002033;28;20042;-66
2023/10/06 04:30:38;;;;;;;10.68;4.30;;;;;;;10.32;100.00;102198.38;5006992;28;20164;-66
2023/10/06 04:33:05;;;;;;;8.90;3.55;;;;;;;10.30;100.00;102195.06;5006082;28;20061;-66
2023/10/06 04:35:34;;;;;;;11.90;4.70;;;;;;;10.24;100.00;102203.28;5003785;28;20033;-66
2023/10/06 04:38:01;;;;;;;13.32;3.75;;;;;;;10.19;100.00;102195.06;5005763;28;20243;-66
2023/10/06 04:40:27;;;;;;;7.63;3.97;;;;;;;10.19;100.00;102195.06;5004922;28;20685;-66
2023/10/06 04:42:54;;;;;;;9.82;4.15;;;;;;;10.21;100.00;102194.91;5001288;28;20111;-67
2023/10/06 04:45:19;;;;;;;10.60;3.45;;;;;;;10.15;100.00;102188.44;5001855;28;20121;-66
2023/10/06 04:47:45;;;;;;;12.23;3.78;;;;;;;10.12;100.00;102183.50;5004867;28;20053;-66
2023/10/06 04:50:15;;;;;;;12.70;4.60;;;;;;;10.19;100.00;102178.66;5006095;28;20109;-66
2023/10/06 04:52:44;;;;;;;10.55;4.07;;;;;;;10.15;100.00;102185.84;5003850;28;20034;-66
2023/10/06 04:55:13;;;;;;;12.93;4.55;;;;;;;10.12;100.00;102188.69;5002488;28;20049;-66
2023/10/06 04:57:43;;;;;;;11.60;4.07;;;;;;;10.14;100.00;102199.75;5002389;28;20046;-66
2023/10/06 05:00:20;;;;;;;12.45;4.97;;;;;;;10.12;100.00;102196.47;5003833;28;20072;-66
2023/10/06 05:02:50;;;;;;;13.68;4.60;;;;;;;10.19;100.00;102202.00;5000240;28;20022;-66
2023/10/06 05:05:20;;;;;;;15.77;4.60;;;;;;;10.29;100.00;102185.59;5007016;28;20026;-66
2023/10/06 05:07:50;;;;;;;12.68;4.38;;;;;;;10.32;100.00;102179.38;5005044;28;20488;-66
2023/10/06 05:10:26;;;;;;;13.43;4.22;;;;;;;10.25;100.00;102180.78;5005544;28;20034;-66
2023/10/06 05:12:52;;;;;;;10.15;3.80;;;;;;;10.19;100.00;102176.06;5001373;28;20042;-66
2023/10/06 05:15:26;;;;;;;11.25;4.03;;;;;;;10.22;100.00;102181.84;4999355;28;20038;-66
2023/10/06 05:17:58;;;;;;;8.63;4.38;;;;;;;10.17;100.00;102181.41;5002035;28;20042;-66
2023/10/06 05:20:27;;;;;;;10.38;4.25;;;;;;;10.15;100.00;102191.03;5001153;28;20026;-66
2023/10/06 05:22:53;;;;;;;13.93;4.32;;;;;;;10.23;100.00;102187.88;5001940;28;20050;-66
2023/10/06 05:25:19;;;;;;;9.77;4.05;;;;;;;10.20;100.00;102181.13;5005753;28;20538;-66
2023/10/06 05:27:47;;;;;;;9.85;3.53;;;;;;;10.29;100.00;102188.19;5002699;28;20041;-66
2023/10/06 05:30:14;;;;;;;10.90;3.65;;;;;;;10.27;100.00;102182.31;5006222;28;20071;-66
2023/10/06 05:32:43;;;;;;;11.50;3.95;;;;;;;10.20;100.00;102183.72;4999393;28;20157;-67
2023/10/06 05:35:13;;;;;;;8.43;3.90;;;;;;;10.16;100.00;102181.50;5003841;28;20030;-66
2023/10/06 05:37:39;;;;;;;10.95;4.25;;;;;;;10.14;100.00;102185.03;5003373;28;20057;-66
2023/10/06 05:40:05;;;;;;;8.25;4.20;;;;;;;10.12;100.00;102180.91;5009980;28;20472;-66
2023/10/06 05:42:33;;;;;;;15.23;4.72;;;;;;;10.13;100.00;102180.81;5003040;28;20062;-67
2023/10/06 05:44:59;;;;;;;10.82;3.75;;;;;;;10.21;100.00;102175.03;5000024;28;20030;-66
2023/10/06 05:47:25;;;;;;;12.30;4.10;;;;;;;10.26;100.00;102177.25;5004370;28;20035;-65
2023/10/06 05:49:53;;;;;;;12.70;3.63;;;;;;;10.26;100.00;102188.44;4983953;28;20034;-66
2023/10/06 05:52:20;;;;;;;10.65;3.45;;;;;;;10.21;100.00;102187.13;5004599;28;20057;-66
2023/10/06 05:54:45;;;;;;;8.93;3.05;;;;;;;10.19;100.00;102196.81;5004799;28;20045;-66
2023/10/06 05:57:11;;;;;;;15.38;3.92;;;;;;;10.16;100.00;102192.69;5001380;28;20030;-66
2023/10/06 05:59:38;;;;;;;12.15;3.70;;;;;;;10.27;100.00;102184.09;4999553;28;20085;-66
2023/10/06 06:02:04;;;;;;;13.13;3.80;;;;;;;10.23;100.00;102193.88;5003777;28;20069;-66
2023/10/06 06:04:30;;;;;;;8.65;3.80;;;;;;;10.23;100.00;102182.69;5002300;28;20504;-66
2023/10/06 06:06:57;;;;;;;12.45;4.07;;;;;;;10.33;100.00;102189.63;5000932;28;20030;-66
2023/10/06 06:09:33;;;;;;;11.48;4.13;;;;;;;10.35;100.00;102197.28;5001189;28;20508;-66
2023/10/06 06:12:00;;;;;;;11.30;3.33;;;;;;;10.42;100.00;102195.88;5004176;28;20118;-66
2023/10/06 06:14:26;;;;;;;12.30;3.63;;;;;;;10.49;100.00;102191.00;5005967;28;20523;-66
2023/10/06 06:16:52;;;;;;;18.67;4.63;;;;;;;10.49;100.00;102193.59;5005237;28;20034;-66
2023/10/06 06:19:18;;;;;;;14.65;3.78;;;;;;;10.58;100.00;102207.63;4997880;28;20149;-67
2023/10/06 06:21:45;;;;;;;15.07;4.75;;;;;;;10.66;100.00;102203.47;5001519;28;20037;-67
2023/10/06 06:24:10;;;;;;;12.00;3.63;;;;;;;10.66;100.00;102205.22;5002089;28;20062;-67
2023/10/06 06:26:36;;;;;;;14.00;4.22;;;;;;;10.73;100.00;102213.38;5003859;28;20493;-67
2023/10/06 06:29:08;;;;;;;17.45;4.15;;;;;;;10.83;100.00;102209.06;4999073;28;20125;-67
2023/10/06 06:31:34;;;;;;;12.13;3.72;;;;;;;10.86;100.00;102209.66;5003051;28;20041;-67
2023/10/06 06:34:00;;;;;;;10.50;4.07;;;;;;;10.97;100.00;102213.97;4998076;28;20044;-67
2023/10/06 06:36:26;;;;;;;11.55;3.47;;;;;;;11.01;100.00;102210.19;5004331;28;20389;-67
2023/10/06 06:38:53;;;;;;;12.75;3.90;;;;;;;11.08;100.00;102205.34;5004390;28;20041;-67
2023/10/06 06:41:19;;;;;;;15.35;3.90;;;;;;;11.21;100.00;102203.38;5000757;28;20052;-67
2023/10/06 06:43:45;;;;;;;10.93;4.38;;;;;;;11.23;100.00;102205.84;4986558;28;20045;-67
2023/10/06 06:46:12;;;;;;;11.75;3.88;;;;;;;11.35;100.00;102204.84;5002648;28;20034;-67
2023/10/06 06:48:38;;;;;;;14.55;5.10;;;;;;;11.44;100.00;102211.06;4998881;28;20040;-67
2023/10/06 06:51:04;;;;;;;8.70;3.35;;;;;;;11.48;100.00;102208.06;4996629;28;20038;-66
2023/10/06 06:53:30;;;;;;;11.27;3.63;;;;;;;11.47;100.00;102206.44;5002666;28;20101;-67
2023/10/06 06:55:56;;;;;;;13.07;3.80;;;;;;;11.63;100.00;102212.94;4999040;28;20045;-67
2023/10/06 06:58:22;;;;;;;8.63;3.95;;;;;;;11.61;100.00;102213.06;5003601;28;20041;-66
2023/10/06 07:00:47;;;;;;;13.25;3.90;;;;;;;11.74;100.00;102210.25;4999640;28;20038;-67
2023/10/06 07:03:14;;;;;;;11.82;3.97;;;;;;;11.76;100.00;102210.94;5000406;28;20034;-67
2023/10/06 07:05:40;;;;;;;12.90;4.50;;;;;;;11.81;100.00;102210.53;5002134;28;20651;-67
2023/10/06 07:08:06;;;;;;;9.48;3.53;;;;;;;11.77;100.00;102202.22;5000386;28;20136;-67
2023/10/06 07:10:33;;;;;;;14.15;3.90;;;;;;;11.87;100.00;102210.06;4998719;28;20280;-67
2023/10/06 07:12:59;;;;;;;9.80;3.50;;;;;;;11.88;100.00;102209.09;4998112;28;20613;-67
2023/10/06 07:15:29;;;;;;;11.52;3.88;;;;;;;11.93;100.00;102206.13;5000595;28;20072;-67
2023/10/06 07:17:57;;;;;;;13.32;3.70;;;;;;;12.01;100.00;102204.50;4997990;28;20074;-67
2023/10/06 07:20:26;;;;;;;8.15;3.70;;;;;;;12.10;100.00;102215.09;4998060;28;20378;-67
2023/10/06 07:22:55;;;;;;;13.88;3.85;;;;;;;12.22;100.00;102211.44;4999253;28;20410;-67
2023/10/06 07:25:26;;;;;;;17.65;3.92;;;;;;;12.22;100.00;102212.28;4997362;28;20090;-67
2023/10/06 07:27:57;;;;;;;16.40;5.15;;;;;;;12.30;100.00;102211.59;4997477;28;20029;-67
2023/10/06 07:30:25;;;;;;;11.32;4.15;;;;;;;12.60;99.18;102210.72;4982903;28;20030;-67
2023/10/06 07:32:52;;;;;;;14.73;3.95;;;;;;;12.83;98.69;102206.06;4999326;28;20041;-67
2023/10/06 07:35:20;;;;;;;12.73;3.45;;;;;;;13.00;97.36;102209.75;5000720;28;20036;-67
2023/10/06 07:37:47;;;;;;;15.75;3.72;;;;;;;13.28;95.10;102199.47;4998110;28;20105;-67
2023/10/06 07:40:14;;;;;;;9.70;3.53;;;;;;;13.43;93.05;102208.50;4998110;28;20483;-67
2023/10/06 07:42:44;;;;;;;15.55;4.63;;;;;;;13.52;92.98;102209.44;4998532;28;20034;-67
2023/10/06 07:45:11;;;;;;;9.20;3.05;;;;;;;13.88;90.88;102200.94;4998830;28;20044;-67
2023/10/06 07:47:38;;;;;;;13.20;4.22;;;;;;;13.93;90.71;102209.19;4999452;28;20369;-68
2023/10/06 07:50:05;;;;;;;21.00;4.43;;;;;;;14.01;89.26;102201.44;5001872;28;20126;-67
2023/10/06 07:52:32;;;;;;;15.35;3.53;;;;;;;14.07;90.35;102210.47;4999588;28;20443;-69
2023/10/06 07:54:58;;;;;;;10.38;3.45;;;;;;;14.07;88.84;102206.09;4995808;28;20045;-68
2023/10/06 07:57:23;;;;;;;17.77;3.85;;;;;;;14.06;89.53;102198.41;5001246;28;20068;-67
2023/10/06 07:59:49;;;;;;;10.93;2.90;;;;;;;14.07;89.94;102200.03;4998282;28;20034;-67
2023/10/06 08:02:14;;;;;;;11.45;2.75;;;;;;;14.38;89.55;102197.94;4997602;28;20018;-67
2023/10/06 08:04:40;;;;;;;10.48;3.00;;;;;;;14.72;87.05;102207.78;4995719;28;20508;-67
2023/10/06 08:07:05;;;;;;;10.13;3.35;;;;;;;15.08;84.90;102202.53;4999572;28;20037;-67
2023/10/06 08:09:34;;;;;;;10.40;3.10;;;;;;;15.23;85.20;102202.81;4981768;28;20084;-67
2023/10/06 08:11:59;;;;;;;11.30;3.13;;;;;;;15.71;83.42;102191.84;5000842;28;20121;-67
2023/10/06 08:14:25;;;;;;;11.48;3.35;;;;;;;16.28;80.71;102193.88;4997595;28;20070;-67
2023/10/06 08:16:50;;;;;;;12.40;3.00;;;;;;;16.55;77.96;102195.38;4998594;28;20038;-68
2023/10/06 08:19:16;;;;;;;11.10;3.00;;;;;;;16.58;76.59;102190.81;4997214;28;20416;-67
2023/10/06 08:21:42;;;;;;;13.43;2.90;;;;;;;16.69;77.90;102193.13;4997403;28;20087;-67
2023/10/06 08:24:08;;;;;;;12.43;3.20;;;;;;;17.00;75.87;102193.31;4998029;28;20439;-67
2023/10/06 08:26:36;;;;;;;6.80;3.42;;;;;;;17.22;74.01;102181.34;4997067;28;20034;-67
2023/10/06 08:29:04;;;;;;;9.75;2.50;;;;;;;17.42;72.18;102192.28;4997235;28;20038;-67
2023/10/06 08:31:30;;;;;;;15.45;4.10;;;;;;;17.58;71.53;102194.03;4997356;28;20041;-67
2023/10/06 08:33:58;;;;;;;15.82;2.72;;;;;;;17.70;70.96;102189.22;4996607;28;20033;-67
2023/10/06 08:36:23;;;;;;;10.15;2.70;;;;;;;17.94;69.65;102188.34;5001458;28;20057;-67
2023/10/06 08:38:51;;;;;;;10.18;2.70;;;;;;;18.36;68.03;102191.56;4997820;28;20034;-67
2023/10/06 08:41:28;;;;;;;17.83;4.18;;;;;;;18.49;66.93;102184.75;4999326;28;20034;-67
2023/10/06 08:43:55;;;;;;;11.82;2.90;;;;;;;18.64;66.76;102197.94;4996306;28;20053;-67
2023/10/06 08:46:22;;;;;;;11.90;3.20;;;;;;;18.65;65.27;102198.78;5003669;28;20036;-67
2023/10/06 08:48:50;;;;;;;12.77;2.53;;;;;;;18.80;66.68;102204.06;4999015;28;20050;-67
2023/10/06 08:51:19;;;;;;;7.35;2.55;;;;;;;19.00;66.67;102199.97;4997096;28;20034;-67
2023/10/06 08:53:46;;;;;;;11.63;3.13;;;;;;;18.85;65.27;102199.97;5002425;28;20030;-67
2023/10/06 08:56:14;;;;;;;11.27;2.72;;;;;;;18.71;65.88;102208.56;4994158;28;20030;-68
2023/10/06 08:58:41;;;;;;;11.10;2.78;;;;;;;18.62;65.57;102201.75;4985970;28;20038;-67
2023/10/06 09:01:08;;;;;;;12.77;2.90;;;;;;;18.70;65.38;102212.19;4999721;28;20042;-67
2023/10/06 09:03:38;;;;;;;13.68;2.95;;;;;;;18.79;65.57;102197.97;4997147;28;20084;-67
2023/10/06 09:06:06;;;;;;;13.05;3.00;;;;;;;18.76;66.95;102205.41;4999150;28;20041;-68
2023/10/06 09:08:42;;;;;;;10.20;2.80;;;;;;;18.78;67.14;102196.38;5004290;28;20377;-67
2023/10/06 09:11:09;;;;;;;10.02;2.90;;;;;;;18.75;67.59;102204.59;5005505;28;20314;-68
2023/10/06 09:13:36;;;;;;;14.25;2.53;;;;;;;18.66;68.10;102205.66;5002142;28;20073;-68
2023/10/06 09:16:03;;;;;;;13.68;2.60;;;;;;;18.75;67.22;102206.41;5001945;28;20429;-67
2023/10/06 09:18:29;;;;;;;8.50;2.47;;;;;;;18.74;67.03;102200.34;5004140;28;20122;-68
2023/10/06 09:21:19;;;;;;;6.20;2.90;;;;;;;18.68;66.97;102208.91;5004901;28;20042;-68
2023/10/06 09:23:45;;;;;;;9.20;2.78;;;;;;;18.20;68.88;102213.50;4998675;28;20120;-67
2023/10/06 09:26:13;;;;;;;12.07;3.10;;;;;;;18.32;68.74;102201.59;5001726;28;20038;-67
2023/10/06 09:29:01;;;;;;;8.88;2.42;;;;;;;18.37;69.33;102204.53;5002771;28;20061;-68
2023/10/06 09:31:37;;;;;;;5.43;2.30;;;;;;;18.67;67.54;102207.28;4999529;28;20326;-68
2023/10/06 09:34:07;;;;;;;10.25;2.70;;;;;;;18.32;67.52;102204.22;5001899;28;20053;-68
2023/10/06 09:36:33;;;;;;;10.65;2.38;;;;;;;18.27;68.59;102211.78;5001559;28;20407;-68
2023/10/06 09:39:02;;;;;;;14.18;2.70;;;;;;;18.19;68.61;102211.84;5002596;28;20026;-68
2023/10/06 09:41:30;;;;;;;9.25;2.17;;;;;;;18.25;68.86;102198.88;5002303;28;20026;-68
2023/10/06 09:44:03;;;;;;;9.98;2.60;;;;;;;18.36;68.75;102202.06;5003623;28;20088;-68
2023/10/06 09:46:29;;;;;;;12.85;2.45;;;;;;;18.37;69.22;102190.59;5015453;28;20080;-68
2023/10/06 09:48:59;;;;;;;10.48;2.78;;;;;;;18.51;69.78;102194.25;5004189;28;20128;-68
2023/10/06 09:51:30;;;;;;;12.27;2.55;;;;;;;18.58;66.82;102185.50;5003931;28;20049;-68
2023/10/06 09:53:58;;;;;;;10.70;2.63;;;;;;;18.43;68.34;102180.19;4998799;28;20045;-68
2023/10/06 09:56:23;;;;;;;15.70;3.40;;;;;;;18.22;67.99;102178.19;5003634;28;20472;-68
2023/10/06 09:58:49;;;;;;;11.82;3.45;;;;;;;18.20;68.73;102176.75;5001257;28;20034;-68
2023/10/06 10:01:15;;;;;;;15.57;2.65;;;;;;;18.11;69.21;102175.97;5005537;28;20022;-68
2023/10/06 10:03:41;;;;;;;11.75;2.65;;;;;;;18.13;69.93;102173.16;5002804;28;20038;-68
2023/10/06 10:06:07;;;;;;;9.68;2.63;;;;;;;18.21;68.93;102160.78;4999878;28;20060;-68
2023/10/06 10:08:34;;;;;;;8.93;2.22;;;;;;;18.16;68.61;102160.53;5000106;28;20125;-68
2023/10/06 10:11:07;;;;;;;8.23;2.55;;;;;;;18.11;69.24;102154.16;5002699;28;20044;-68
2023/10/06 10:14:18;;;;;;;12.13;2.50;;;;;;;18.21;69.37;102168.69;5015892;28;20563;-68
2023/10/06 10:17:06;;;;;;;9.75;2.92;;;;;;;18.28;67.83;102167.00;4990471;28;20042;-68
2023/10/06 10:19:33;;;;;;;14.32;3.38;;;;;;;18.15;68.50;102166.75;5000745;28;20551;-68
2023/10/06 10:21:59;;;;;;;10.65;2.47;;;;;;;18.28;70.07;102158.31;5005436;28;20032;-68
2023/10/06 10:24:25;;;;;;;10.20;3.10;;;;;;;18.27;67.96;102154.03;5003220;28;20447;-67
2023/10/06 10:26:53;;;;;;;10.60;2.53;;;;;;;18.23;68.63;102150.97;5002988;28;20029;-68
2023/10/06 10:29:19;;;;;;;8.43;2.53;;;;;;;18.04;68.53;102160.06;5000075;28;20077;-69
2023/10/06 10:31:56;;;;;;;8.57;2.75;;;;;;;18.09;68.48;102156.94;5000730;28;20196;-68
2023/10/06 10:34:23;;;;;;;12.15;2.78;;;;;;;18.27;67.98;102156.66;4999479;28;20033;-68
2023/10/06 10:37:12;;;;;;;8.50;2.75;;;;;;;18.23;68.06;102145.72;5002759;28;20041;-67
2023/10/06 10:39:52;;;;;;;10.55;2.80;;;;;;;18.23;68.15;102139.63;4997183;28;20045;-68
2023/10/06 10:42:38;;;;;;;10.32;3.13;;;;;;;18.24;69.27;102131.59;5004942;28;20030;-69
2023/10/06 10:45:34;;;;;;;13.10;2.65;;;;;;;18.36;70.09;102144.31;5003784;28;20628;-68
2023/10/06 10:48:12;;;;;;;11.02;3.30;;;;;;;18.43;69.60;102137.38;4999395;28;20097;-68
2023/10/06 10:50:53;;;;;;;9.38;2.65;;;;;;;18.60;68.40;102130.19;5000168;28;20030;-68
2023/10/06 10:53:22;;;;;;;14.15;3.15;;;;;;;18.51;67.87;102139.13;5001689;28;20049;-68
2023/10/06 10:55:48;;;;;;;8.45;2.53;;;;;;;18.58;68.36;102143.47;4999449;28;20072;-68
2023/10/06 10:58:42;;;;;;;8.73;2.97;;;;;;;18.71;67.58;102140.25;4997144;28;20050;-67
2023/10/06 11:01:24;;;;;;;11.63;2.72;;;;;;;18.77;69.56;102134.28;4999969;28;20041;-68
2023/10/06 11:04:18;;;;;;;10.25;3.35;;;;;;;18.68;67.13;102124.84;5001180;28;20041;-68
2023/10/06 11:06:45;;;;;;;13.35;3.90;;;;;;;18.57;67.41;102127.91;5001724;28;20427;-68
2023/10/06 11:09:36;;;;;;;8.48;3.65;;;;;;;18.78;66.79;102129.84;4998954;28;20649;-68
2023/10/06 11:12:18;;;;;;;7.80;2.65;;;;;;;18.87;67.83;102128.81;5001417;28;20156;-69
2023/10/06 11:14:45;;;;;;;10.90;3.03;;;;;;;18.81;66.61;102130.34;4997031;28;20464;-68
2023/10/06 11:17:12;;;;;;;9.80;2.78;;;;;;;18.76;68.60;102134.47;4979363;28;21744;-68
2023/10/06 11:19:39;;;;;;;12.45;3.17;;;;;;;18.83;67.46;102124.91;4979620;28;20519;-68
2023/10/06 11:22:22;;;;;;;9.65;2.65;;;;;;;18.55;69.97;102124.63;4995980;28;20034;-68
2023/10/06 11:24:50;;;;;;;13.63;3.17;;;;;;;18.52;70.55;102125.00;4999018;28;20455;-68
2023/10/06 11:27:16;;;;;;;10.40;3.30;;;;;;;18.53;67.88;102119.56;5001839;28;20026;-68
2023/10/06 11:29:45;;;;;;;8.95;2.20;;;;;;;18.37;68.80;102124.94;5000033;28;20160;-68